Hilliard, Florida
Current Conditions -  °F | °C
As of 5:56 AM on Wednesday 26 Nov 2014 (Local Time) from KJAX Reporting Station
Light Rain Light Rain  
Wind Chill: 50°   Ceiling: 1400
Heat Index: 50°   Visibility: 10mi
Dew Point: 49°   Wind: 16mph
Humidity: 96%   Direction: 310°NW
Pressure: 29.98"   Gusts: 23mph
Location:  30.69°N, 81.92°W
Report Text: KJAX 261056Z 31014G20KT 10SM -RA FEW009 BKN014 OVC036 10/09 A2998 RMK AO2 RAB51 SLP152 P0000 T01000094
Loading
Personal Weather Stations






























Interactive Weather Map New forecast layout! Learn more

10-Day Weather Forecast

Advertisements
Track Severe Weather on mobile